Portada
METAR-TAF:

METAR-TAF

Aeroports :

Nowra, Austràlia

latitud: 34-57S, longitud: 150-32E, altitud: 122 m

Observació

L'informe es va fer fa 53 minuts, a les 01:00 UTC
Vent 6 kt del Nord
Temperatura 22°C
Humitat 73%
Pressió 1012 hPa
Visibilitat 10 km o més

METAR: YSNW 300100Z AUTO 35006KT 9999 // NCD 22/17 Q1012

Hora: 12:53 (01:53 UTC)


TAF: manca

Observacions i pronòstics meteorològics de més de 4000 aeroports (METAR i TAF).

Les estacions disponibles són els punts grocs i vermells al mapa.

Posi el ratolí al punt desitjat per veure el nom de l'estació.

Feu clic per veure les observacions i els pronòstics meteorològics.

Per canviar el mapa: feu clic els botons verds amb una creu de color negre per apropar; al botó verd amb un guió per allunyar la imatge; o en les fletxes verdes per a mapes adjacents.


METAR-TAF: